createdAt,value
2023-05-15T00:01:28.305Z,10.16
2023-05-15T00:03:56.359Z,10.39
2023-05-15T00:06:24.550Z,10.34
2023-05-15T00:08:54.207Z,10.11
2023-05-15T00:11:23.619Z,10.11
2023-05-15T00:13:52.341Z,10.05
2023-05-15T00:16:20.700Z,10.22
2023-05-15T00:18:48.652Z,10.16
2023-05-15T00:21:17.163Z,10.11
2023-05-15T00:23:45.216Z,10.01
2023-05-15T00:26:15.804Z,10.08
2023-05-15T00:28:44.125Z,10.15
2023-05-15T00:31:13.200Z,10.11
2023-05-15T00:33:41.336Z,10.13
2023-05-15T00:36:10.308Z,9.91
2023-05-15T00:38:40.042Z,9.99
2023-05-15T00:41:11.983Z,9.92
2023-05-15T00:43:42.453Z,10.04
2023-05-15T00:46:11.504Z,9.87
2023-05-15T00:48:40.626Z,10.06
2023-05-15T00:51:08.774Z,10.13
2023-05-15T00:53:38.552Z,10.13
2023-05-15T00:56:08.131Z,9.96
2023-05-15T00:58:38.897Z,9.86
2023-05-15T01:01:09.746Z,10.05
2023-05-15T01:03:38.115Z,9.92
2023-05-15T01:06:06.835Z,9.96
2023-05-15T01:08:43.627Z,9.94
2023-05-15T01:11:13.880Z,10.02
2023-05-15T01:13:42.714Z,10.04
2023-05-15T01:16:12.476Z,9.85
2023-05-15T01:18:41.012Z,9.92
2023-05-15T01:21:42.032Z,9.98
2023-05-15T01:24:27.046Z,9.89
2023-05-15T01:27:16.468Z,9.94
2023-05-15T01:29:51.156Z,9.92
2023-05-15T01:32:21.996Z,9.96
2023-05-15T01:34:59.103Z,9.91
2023-05-15T01:37:30.211Z,9.89
2023-05-15T01:40:04.728Z,9.83
2023-05-15T01:42:35.928Z,9.82
2023-05-15T01:45:07.054Z,9.83
2023-05-15T01:47:42.021Z,9.89
2023-05-15T01:50:14.541Z,9.77
2023-05-15T01:52:46.002Z,9.83
2023-05-15T01:55:16.252Z,9.73
2023-05-15T01:57:48.845Z,9.83
2023-05-15T02:00:18.608Z,9.85
2023-05-15T02:02:47.674Z,9.89
2023-05-15T02:05:16.031Z,9.78
2023-05-15T02:07:46.446Z,9.92
2023-05-15T02:10:17.839Z,9.98
2023-05-15T02:12:49.559Z,9.92
2023-05-15T02:15:18.695Z,9.83
2023-05-15T02:17:47.036Z,9.73
2023-05-15T02:20:17.930Z,9.91
2023-05-15T02:22:46.116Z,9.76
2023-05-15T02:25:14.086Z,9.87
2023-05-15T02:27:53.006Z,9.86
2023-05-15T02:30:36.294Z,9.68
2023-05-15T02:33:14.214Z,9.74
2023-05-15T02:35:52.270Z,9.69
2023-05-15T02:38:27.376Z,9.62
2023-05-15T02:40:57.754Z,9.77
2023-05-15T02:43:30.912Z,9.74
2023-05-15T02:46:00.647Z,9.75
2023-05-15T02:48:30.878Z,9.61
2023-05-15T02:50:59.415Z,9.49
2023-05-15T02:53:34.732Z,9.70
2023-05-15T02:56:04.990Z,9.56
2023-05-15T02:58:51.615Z,9.58
2023-05-15T03:01:19.677Z,9.55
2023-05-15T03:03:54.876Z,9.54
2023-05-15T03:06:31.805Z,9.84
2023-05-15T03:09:09.548Z,9.57
2023-05-15T03:11:38.259Z,9.59
2023-05-15T03:14:09.048Z,9.74
2023-05-15T03:16:38.926Z,9.72
2023-05-15T03:19:07.322Z,9.59
2023-05-15T03:21:36.802Z,9.58
2023-05-15T03:24:05.058Z,9.38
2023-05-15T03:26:33.102Z,9.41
2023-05-15T03:29:02.203Z,9.33
2023-05-15T03:31:31.765Z,9.35
2023-05-15T03:34:00.030Z,9.39
2023-05-15T03:36:28.224Z,9.22
2023-05-15T03:38:58.473Z,9.10
2023-05-15T03:41:27.940Z,9.05
2023-05-15T03:43:56.085Z,9.19
2023-05-15T03:46:24.128Z,9.26
2023-05-15T03:48:54.609Z,9.25
2023-05-15T03:51:23.811Z,9.14
2023-05-15T03:53:51.988Z,9.13
2023-05-15T03:56:20.051Z,9.16
2023-05-15T03:58:48.429Z,9.15
2023-05-15T04:01:16.408Z,9.26
2023-05-15T04:03:44.742Z,8.93
2023-05-15T04:06:14.286Z,8.84
2023-05-15T04:08:42.245Z,9.07
2023-05-15T04:11:12.385Z,8.93
2023-05-15T04:13:40.495Z,8.91
2023-05-15T04:16:10.006Z,8.97
2023-05-15T04:18:38.270Z,8.93
2023-05-15T04:21:06.557Z,9.02
2023-05-15T04:23:35.896Z,8.94
2023-05-15T04:26:05.209Z,9.06
2023-05-15T04:28:33.616Z,8.83
2023-05-15T04:31:02.120Z,9.02
2023-05-15T04:33:30.338Z,9.11
2023-05-15T04:35:58.649Z,9.11
2023-05-15T04:38:27.455Z,9.15
2023-05-15T04:40:57.020Z,9.00
2023-05-15T04:43:25.433Z,9.09
2023-05-15T04:45:54.900Z,9.15
2023-05-15T04:48:23.178Z,9.24
2023-05-15T04:50:52.578Z,9.40
2023-05-15T04:53:20.714Z,9.43
2023-05-15T04:55:51.380Z,9.35
2023-05-15T04:58:21.006Z,9.34
2023-05-15T05:00:49.144Z,9.44
2023-05-15T05:03:17.269Z,9.45
2023-05-15T05:05:45.683Z,9.67
2023-05-15T05:08:13.856Z,9.57
2023-05-15T05:10:42.897Z,9.71
2023-05-15T05:13:13.169Z,9.96
2023-05-15T05:15:42.927Z,10.00
2023-05-15T05:18:11.318Z,10.12
2023-05-15T05:20:39.309Z,10.19
2023-05-15T05:23:07.569Z,10.36
2023-05-15T05:25:35.690Z,10.19
2023-05-15T05:28:03.773Z,10.17
2023-05-15T05:30:31.704Z,10.29
2023-05-15T05:33:01.334Z,10.49
2023-05-15T05:35:29.422Z,10.55
2023-05-15T05:37:57.526Z,10.79
2023-05-15T05:40:26.044Z,10.91
2023-05-15T05:42:54.609Z,11.07
2023-05-15T05:45:24.051Z,11.04
2023-05-15T05:47:52.273Z,11.08
2023-05-15T05:50:24.377Z,11.05
2023-05-15T05:52:52.377Z,11.02
2023-05-15T05:55:20.556Z,10.92
2023-05-15T05:57:48.745Z,11.14
2023-05-15T06:00:17.689Z,11.36
2023-05-15T06:02:45.651Z,11.61
2023-05-15T06:05:14.699Z,11.97
2023-05-15T06:07:45.058Z,11.92
2023-05-15T06:10:13.911Z,12.40
2023-05-15T06:12:42.331Z,12.77
2023-05-15T06:15:11.357Z,12.81
2023-05-15T06:17:39.543Z,12.78
2023-05-15T06:20:10.891Z,12.34
2023-05-15T06:22:40.760Z,12.38
2023-05-15T06:25:14.721Z,12.55
2023-05-15T06:27:42.888Z,12.37
2023-05-15T06:30:12.248Z,12.08
2023-05-15T06:32:41.497Z,12.04
2023-05-15T06:35:10.838Z,12.09
2023-05-15T06:37:40.034Z,12.46
2023-05-15T06:40:11.506Z,12.61
2023-05-15T06:42:39.960Z,12.38
2023-05-15T06:45:09.329Z,12.73
2023-05-15T06:47:37.292Z,13.12
2023-05-15T06:50:06.565Z,13.09
2023-05-15T06:52:35.004Z,13.38
2023-05-15T06:55:03.040Z,13.22
2023-05-15T06:57:34.482Z,13.73
2023-05-15T07:00:05.895Z,14.02
2023-05-15T07:02:37.055Z,13.76
2023-05-15T07:05:05.477Z,14.31
2023-05-15T07:07:38.593Z,15.73
2023-05-15T07:10:07.908Z,16.69
2023-05-15T07:12:37.888Z,17.17
2023-05-15T07:15:06.955Z,17.08
2023-05-15T07:17:35.328Z,16.86
2023-05-15T07:20:06.159Z,17.60
2023-05-15T07:22:38.788Z,17.71
2023-05-15T07:25:14.593Z,17.88
2023-05-15T07:27:45.853Z,18.18
2023-05-15T07:30:14.861Z,17.16
2023-05-15T07:32:42.990Z,16.83
2023-05-15T07:35:12.599Z,16.23
2023-05-15T07:37:41.017Z,16.59
2023-05-15T07:40:09.996Z,16.82
2023-05-15T07:42:39.758Z,17.19
2023-05-15T07:45:10.770Z,17.39
2023-05-15T07:47:45.923Z,16.78
2023-05-15T07:50:17.112Z,16.78
2023-05-15T07:52:45.733Z,17.75
2023-05-15T07:55:14.776Z,16.86
2023-05-15T07:57:43.629Z,18.17
2023-05-15T08:00:23.445Z,18.36
2023-05-15T08:02:53.792Z,17.87
2023-05-15T08:05:22.008Z,17.21
2023-05-15T08:07:52.975Z,16.74
2023-05-15T08:10:50.041Z,16.27
2023-05-15T08:13:50.471Z,17.27
2023-05-15T08:16:42.863Z,18.13
2023-05-15T08:20:10.993Z,19.04
2023-05-15T08:23:58.691Z,17.45
2023-05-15T08:26:27.125Z,19.27
2023-05-15T08:28:56.437Z,18.61
2023-05-15T08:31:24.741Z,18.39
2023-05-15T08:33:54.597Z,18.90
2023-05-15T08:36:22.744Z,19.67
2023-05-15T08:38:50.982Z,18.65
2023-05-15T08:41:40.844Z,20.20
2023-05-15T08:44:12.972Z,19.83
2023-05-15T08:46:43.032Z,18.29
2023-05-15T08:49:24.999Z,19.83
2023-05-15T08:52:05.089Z,20.17
2023-05-15T08:54:33.744Z,19.79
2023-05-15T08:57:03.772Z,19.50
2023-05-15T08:59:31.883Z,18.92
2023-05-15T09:02:00.993Z,19.40
2023-05-15T09:04:30.348Z,19.58
2023-05-15T09:07:01.717Z,19.86
2023-05-15T09:09:32.295Z,20.50
2023-05-15T09:12:03.272Z,20.50
2023-05-15T09:14:31.874Z,20.95
2023-05-15T09:17:00.861Z,21.05
2023-05-15T09:19:30.788Z,20.92
2023-05-15T09:22:17.725Z,20.48
2023-05-15T09:24:48.603Z,21.47
2023-05-15T09:27:17.700Z,21.27
2023-05-15T09:29:45.937Z,20.36
2023-05-15T09:32:15.686Z,20.32
2023-05-15T09:34:46.359Z,21.32
2023-05-15T09:37:29.369Z,20.24
2023-05-15T09:39:57.617Z,19.91
2023-05-15T09:42:26.246Z,21.04
2023-05-15T09:44:54.560Z,21.18
2023-05-15T09:47:22.665Z,21.26
2023-05-15T09:49:53.747Z,22.54
2023-05-15T09:52:23.308Z,21.68
2023-05-15T09:54:51.887Z,22.56
2023-05-15T09:57:24.417Z,20.52
2023-05-15T09:59:58.288Z,21.90
2023-05-15T10:02:32.177Z,21.35
2023-05-15T10:05:02.908Z,21.68
2023-05-15T10:07:32.030Z,21.90
2023-05-15T10:10:01.203Z,22.56
2023-05-15T10:12:32.173Z,23.49
2023-05-15T10:15:01.285Z,21.16
2023-05-15T10:17:30.300Z,21.86
2023-05-15T10:20:07.054Z,20.95
2023-05-15T10:22:41.437Z,22.12
2023-05-15T10:25:14.720Z,22.11
2023-05-15T10:27:43.712Z,21.72
2023-05-15T10:30:13.946Z,21.46
2023-05-15T10:32:43.613Z,19.57
2023-05-15T10:35:14.731Z,20.98
2023-05-15T10:37:43.243Z,22.01
2023-05-15T10:40:12.647Z,20.78
2023-05-15T10:42:44.688Z,20.33
2023-05-15T10:45:13.681Z,21.14
2023-05-15T10:47:44.226Z,21.43
2023-05-15T10:50:14.899Z,20.77
2023-05-15T10:52:43.784Z,21.84
2023-05-15T10:55:17.649Z,21.81
2023-05-15T10:57:47.134Z,21.52
2023-05-15T11:00:31.464Z,22.00
2023-05-15T11:03:03.773Z,20.43
2023-05-15T11:06:09.654Z,21.25
2023-05-15T11:08:38.955Z,22.04
2023-05-15T11:11:08.350Z,21.87
2023-05-15T11:14:13.874Z,22.96
2023-05-15T11:17:07.827Z,23.24
2023-05-15T11:19:55.689Z,24.01
2023-05-15T11:22:32.206Z,21.70
2023-05-15T11:25:03.536Z,21.73
2023-05-15T11:27:33.171Z,20.45
2023-05-15T11:30:16.386Z,22.07
2023-05-15T11:32:58.987Z,22.73
2023-05-15T11:35:30.223Z,22.11
2023-05-15T11:38:02.992Z,20.73
2023-05-15T11:40:38.182Z,21.59
2023-05-15T11:43:09.503Z,23.06
2023-05-15T11:45:39.834Z,24.53
2023-05-15T11:48:09.999Z,21.45
2023-05-15T11:50:40.022Z,23.15
2023-05-15T11:53:11.890Z,22.11
2023-05-15T11:55:46.909Z,22.08
2023-05-15T11:58:17.890Z,22.35
2023-05-15T12:00:49.513Z,22.38
2023-05-15T12:03:19.276Z,21.04
2023-05-15T12:05:58.143Z,20.99
2023-05-15T12:08:34.325Z,19.73
2023-05-15T12:11:03.326Z,19.26
2023-05-15T12:13:32.723Z,20.24
2023-05-15T12:16:01.994Z,20.81
2023-05-15T12:18:30.971Z,21.58
2023-05-15T12:21:00.148Z,21.01
2023-05-15T12:23:31.191Z,20.93
2023-05-15T12:26:02.280Z,20.42
2023-05-15T12:28:31.302Z,21.67
2023-05-15T12:31:00.122Z,21.07
2023-05-15T12:33:28.573Z,21.23
2023-05-15T12:36:01.153Z,20.90
2023-05-15T12:38:31.136Z,21.10
2023-05-15T12:40:59.332Z,20.26
2023-05-15T12:43:27.928Z,20.76
2023-05-15T12:45:57.278Z,19.62
2023-05-15T12:48:31.038Z,19.73
2023-05-15T12:51:06.481Z,20.18
2023-05-15T12:53:38.624Z,20.21
2023-05-15T12:56:07.163Z,19.98
2023-05-15T12:58:35.708Z,19.90
2023-05-15T13:01:04.858Z,19.89
2023-05-15T13:03:33.856Z,21.96
2023-05-15T13:06:07.496Z,22.95
2023-05-15T13:08:41.482Z,21.76
2023-05-15T13:11:14.523Z,21.32
2023-05-15T13:13:47.705Z,19.78
2023-05-15T13:16:25.331Z,20.98
2023-05-15T13:18:53.989Z,20.62
2023-05-15T13:21:21.924Z,21.04
2023-05-15T13:24:09.903Z,20.24
2023-05-15T13:26:48.202Z,20.38
2023-05-15T13:29:26.213Z,20.97
2023-05-15T13:32:02.945Z,22.42
2023-05-15T13:34:43.516Z,21.69
2023-05-15T13:37:12.516Z,20.48
2023-05-15T13:39:52.866Z,20.02
2023-05-15T13:42:21.160Z,20.28
2023-05-15T13:44:53.108Z,19.51
2023-05-15T13:47:27.770Z,18.95
2023-05-15T13:49:58.308Z,18.81
2023-05-15T13:52:26.671Z,18.31
2023-05-15T13:54:56.744Z,18.19
2023-05-15T13:57:24.765Z,18.08
2023-05-15T13:59:52.612Z,17.48
2023-05-15T14:02:21.171Z,17.89
2023-05-15T14:04:49.161Z,17.69
2023-05-15T14:07:17.175Z,16.68
2023-05-15T14:09:46.332Z,17.29
2023-05-15T14:12:15.712Z,16.78
2023-05-15T14:14:50.530Z,16.80
2023-05-15T14:17:28.237Z,16.34
2023-05-15T14:20:13.632Z,16.02
2023-05-15T14:22:47.342Z,16.22
2023-05-15T14:25:18.396Z,16.60
2023-05-15T14:27:51.696Z,16.67
2023-05-15T14:30:45.052Z,16.38
2023-05-15T14:33:14.264Z,16.61
2023-05-15T14:35:59.333Z,17.08
2023-05-15T14:39:24.384Z,16.78
2023-05-15T14:41:59.568Z,15.87
2023-05-15T14:44:40.595Z,16.69
2023-05-15T14:47:17.755Z,16.46
2023-05-15T15:01:09.258Z,17.67
2023-05-15T15:04:02.227Z,16.29
2023-05-15T15:07:33.214Z,16.36
2023-05-15T15:19:40.501Z,15.78
2023-05-15T15:22:47.619Z,16.31
2023-05-15T15:31:41.847Z,15.28
2023-05-15T15:38:26.444Z,15.03
2023-05-15T15:40:55.398Z,15.02
2023-05-15T15:43:28.105Z,14.82
2023-05-15T15:45:58.894Z,14.24
2023-05-15T15:48:26.958Z,14.23
2023-05-15T15:50:55.305Z,14.17
2023-05-15T15:53:35.370Z,14.45
2023-05-15T15:56:12.674Z,13.93
2023-05-15T15:58:41.018Z,14.29
2023-05-15T16:01:12.314Z,13.96
2023-05-15T16:03:40.347Z,14.12
2023-05-15T16:06:08.776Z,14.17
2023-05-15T16:08:37.281Z,14.35
2023-05-15T16:11:06.681Z,14.19
2023-05-15T16:13:35.020Z,14.36
2023-05-15T16:16:05.485Z,13.82
2023-05-15T16:18:37.780Z,13.85
2023-05-15T16:21:06.242Z,14.01
2023-05-15T16:23:35.028Z,13.66
2023-05-15T16:26:05.697Z,13.67
2023-05-15T16:28:35.809Z,13.60
2023-05-15T16:31:14.747Z,13.37
2023-05-15T16:33:43.844Z,13.22
2023-05-15T16:36:11.827Z,13.17
2023-05-15T16:38:40.124Z,13.42
2023-05-15T16:41:10.605Z,13.11
2023-05-15T16:43:40.014Z,12.83
2023-05-15T16:46:08.375Z,12.56
2023-05-15T16:48:38.960Z,12.59
2023-05-15T16:51:07.186Z,12.76
2023-05-15T16:53:36.484Z,12.68
2023-05-15T16:56:04.721Z,12.72
2023-05-15T16:58:34.275Z,12.47
2023-05-15T17:01:10.470Z,12.43
2023-05-15T17:03:39.711Z,12.59
2023-05-15T17:06:14.487Z,12.38
2023-05-15T17:08:46.652Z,12.16
2023-05-15T17:11:15.077Z,12.13
2023-05-15T17:13:43.304Z,12.12
2023-05-15T17:16:15.447Z,11.98
2023-05-15T17:18:46.724Z,12.03
2023-05-15T17:21:14.867Z,11.83
2023-05-15T17:23:43.149Z,11.78
2023-05-15T17:26:11.410Z,11.63
2023-05-15T17:28:39.850Z,11.58
2023-05-15T17:31:12.803Z,11.65
2023-05-15T17:33:47.660Z,11.57
2023-05-15T17:36:16.857Z,11.63
2023-05-15T17:38:45.013Z,11.73
2023-05-15T17:41:13.007Z,11.60
2023-05-15T17:43:41.930Z,11.60
2023-05-15T17:46:10.288Z,11.63
2023-05-15T17:48:39.408Z,11.82
2023-05-15T17:51:11.193Z,11.88
2023-05-15T17:53:39.595Z,11.80
2023-05-15T17:56:09.542Z,11.79
2023-05-15T17:58:37.785Z,11.84
2023-05-15T18:01:06.847Z,11.55
2023-05-15T18:03:35.317Z,11.63
2023-05-15T18:06:04.488Z,11.55
2023-05-15T18:08:39.416Z,11.47
2023-05-15T18:11:21.074Z,11.57
2023-05-15T18:13:51.166Z,11.46
2023-05-15T18:16:33.034Z,11.55
2023-05-15T18:19:02.835Z,11.34
2023-05-15T18:21:35.586Z,11.26
2023-05-15T18:24:13.898Z,11.30
2023-05-15T18:26:50.022Z,11.20
2023-05-15T18:29:27.380Z,11.04
2023-05-15T18:31:57.184Z,11.10
2023-05-15T18:34:27.777Z,11.11
2023-05-15T18:37:27.099Z,10.85
2023-05-15T18:39:58.964Z,11.09
2023-05-15T18:42:32.427Z,11.18
2023-05-15T18:45:08.730Z,10.96
2023-05-15T18:47:41.067Z,10.94
2023-05-15T18:50:23.663Z,10.87
2023-05-15T18:52:52.311Z,10.87
2023-05-15T18:55:23.767Z,10.74
2023-05-15T18:57:53.682Z,10.87
2023-05-15T19:00:36.542Z,10.87
2023-05-15T19:03:07.078Z,10.86
2023-05-15T19:05:35.524Z,10.69
2023-05-15T19:08:04.366Z,10.70
2023-05-15T19:10:34.987Z,10.68
2023-05-15T19:13:06.471Z,10.61
2023-05-15T19:15:37.450Z,10.50
2023-05-15T19:18:06.736Z,10.34
2023-05-15T19:20:35.619Z,10.57
2023-05-15T19:23:03.583Z,10.56
2023-05-15T19:25:34.007Z,10.46
2023-05-15T19:28:02.381Z,10.58
2023-05-15T19:30:30.905Z,10.14
2023-05-15T19:33:00.494Z,10.18
2023-05-15T19:35:31.046Z,10.13
2023-05-15T19:38:10.629Z,9.97
2023-05-15T19:40:56.836Z,9.76
2023-05-15T19:43:25.705Z,10.03
2023-05-15T19:45:54.346Z,10.15
2023-05-15T19:48:22.846Z,9.96
2023-05-15T19:50:52.472Z,10.05
2023-05-15T19:53:25.615Z,9.95
2023-05-15T19:56:03.869Z,9.77
2023-05-15T19:58:31.937Z,9.91
2023-05-15T20:01:01.672Z,9.73
2023-05-15T20:03:33.765Z,9.78
2023-05-15T20:06:02.441Z,9.59
2023-05-15T20:08:32.631Z,9.55
2023-05-15T20:11:17.349Z,9.31
2023-05-15T20:13:45.769Z,9.38
2023-05-15T20:16:16.846Z,9.53
2023-05-15T20:18:48.252Z,9.44
2023-05-15T20:21:17.018Z,9.36
2023-05-15T20:23:44.990Z,9.44
2023-05-15T20:26:14.487Z,9.42
2023-05-15T20:28:45.228Z,9.23
2023-05-15T20:31:13.666Z,9.04
2023-05-15T20:33:43.462Z,9.07
2023-05-15T20:36:14.745Z,9.02
2023-05-15T20:38:44.962Z,8.85
2023-05-15T20:41:14.410Z,9.04
2023-05-15T20:43:42.483Z,9.03
2023-05-15T20:46:18.831Z,9.00
2023-05-15T20:48:49.097Z,8.96
2023-05-15T20:51:17.771Z,8.96
2023-05-15T20:53:45.788Z,9.02
2023-05-15T20:56:18.265Z,8.97
2023-05-15T20:58:47.679Z,8.88
2023-05-15T21:01:17.029Z,8.79
2023-05-15T21:04:02.499Z,8.75
2023-05-15T21:06:33.370Z,8.85
2023-05-15T21:09:05.630Z,8.74
2023-05-15T21:11:41.134Z,8.67
2023-05-15T21:14:10.659Z,8.57
2023-05-15T21:16:39.880Z,8.65
2023-05-15T21:19:13.096Z,8.89
2023-05-15T21:21:41.496Z,8.65
2023-05-15T21:24:10.451Z,8.72
2023-05-15T21:29:26.138Z,8.54
2023-05-15T21:31:54.139Z,8.53
2023-05-15T21:34:23.452Z,8.47
2023-05-15T21:36:51.667Z,8.42
2023-05-15T21:39:23.438Z,8.46
2023-05-15T21:41:54.105Z,8.37
2023-05-15T21:44:23.293Z,8.37
2023-05-15T21:46:52.782Z,8.47
2023-05-15T21:49:21.082Z,8.29
2023-05-15T21:52:04.917Z,8.57
2023-05-15T21:54:33.152Z,8.34
2023-05-15T21:57:09.445Z,8.47
2023-05-15T21:59:38.639Z,8.46
2023-05-15T22:02:12.534Z,8.36
2023-05-15T22:04:41.765Z,8.53
2023-05-15T22:07:09.931Z,8.55
2023-05-15T22:09:37.972Z,8.51
2023-05-15T22:12:08.711Z,8.36
2023-05-15T22:14:46.969Z,8.38
2023-05-15T22:17:26.645Z,8.37
2023-05-15T22:19:54.970Z,8.41
2023-05-15T22:22:22.968Z,8.39
2023-05-15T22:24:50.804Z,8.52
2023-05-15T22:27:21.220Z,8.59
2023-05-15T22:29:50.051Z,8.52
2023-05-15T22:32:19.400Z,8.42
2023-05-15T22:34:49.638Z,8.19
2023-05-15T22:37:26.858Z,8.25
2023-05-15T22:43:03.292Z,8.18
2023-05-15T22:45:35.703Z,8.33
2023-05-15T22:48:04.326Z,8.38
2023-05-15T22:50:32.816Z,8.49
2023-05-15T22:53:08.047Z,8.37
2023-05-15T22:55:42.996Z,8.37
2023-05-15T22:58:13.500Z,8.20
2023-05-15T23:00:41.621Z,8.20
2023-05-15T23:03:09.810Z,8.22
2023-05-15T23:05:38.103Z,8.17
2023-05-15T23:08:06.532Z,8.14
2023-05-15T23:10:35.034Z,7.97
2023-05-15T23:13:03.644Z,7.86
2023-05-15T23:15:34.650Z,7.87
2023-05-15T23:18:03.171Z,7.69
2023-05-15T23:20:33.310Z,7.77
2023-05-15T23:23:01.389Z,7.73
2023-05-15T23:25:32.427Z,7.63
2023-05-15T23:28:01.060Z,7.79
2023-05-15T23:30:29.209Z,7.75
2023-05-15T23:32:59.677Z,7.74
2023-05-15T23:35:28.668Z,7.68
2023-05-15T23:37:58.062Z,7.58
2023-05-15T23:40:29.665Z,7.57
2023-05-15T23:43:15.653Z,7.27
2023-05-15T23:45:52.979Z,7.25
2023-05-15T23:48:28.700Z,7.22
2023-05-15T23:51:04.017Z,7.26
2023-05-15T23:53:33.503Z,7.32
2023-05-15T23:56:29.740Z,7.33
2023-05-15T23:59:51.003Z,7.33
